Time;durP1;ratioP1;P1;durP2;ratioP2;P2;SDS_P1;SDS_P2;PMS_P1;PMS_P2;Temp;Humidity;BMP_temperature;BMP_pressure;BME280_temperature;BME280_humidity;BME280_pressure;Samples;Min_cycle;Max_cycle;Signal;HPM_P1;HPM_P2
2022/02/15 00:01:55;;;;;;;1.27;1.02;;;7.10;99.90;;;;;;5074071;28;20090;-72
2022/02/15 00:04:21;;;;;;;0.32;0.32;;;7.10;99.90;;;;;;5089497;28;20428;-71
2022/02/15 00:06:47;;;;;;;0.13;0.13;;;7.10;99.90;;;;;;5073502;28;20531;-71
2022/02/15 00:09:14;;;;;;;1.63;1.52;;;7.00;99.90;;;;;;5073808;28;20028;-72
2022/02/15 00:11:40;;;;;;;1.48;1.38;;;7.00;99.90;;;;;;5072095;28;20037;-72
2022/02/15 00:14:05;;;;;;;0.10;0.10;;;6.90;99.90;;;;;;5073447;28;20116;-71
2022/02/15 00:16:31;;;;;;;0.52;0.52;;;7.00;99.90;;;;;;5088837;28;20386;-72
2022/02/15 00:18:57;;;;;;;1.27;1.17;;;6.90;99.90;;;;;;5073414;28;20036;-70
2022/02/15 00:21:23;;;;;;;3.25;1.27;;;6.90;99.90;;;;;;5073489;28;20495;-72
2022/02/15 00:23:48;;;;;;;0.43;0.43;;;6.90;99.90;;;;;;5073223;28;20043;-72
2022/02/15 00:26:14;;;;;;;0.30;0.17;;;6.80;99.90;;;;;;5073579;28;20036;-72
2022/02/15 00:28:40;;;;;;;0.10;0.10;;;6.90;99.90;;;;;;5073081;28;20173;-71
2022/02/15 00:31:05;;;;;;;3.92;1.95;;;6.90;99.90;;;;;;5073332;28;20029;-71
2022/02/15 00:33:31;;;;;;;0.73;0.73;;;6.90;99.90;;;;;;5073415;28;20021;-71
2022/02/15 00:35:57;;;;;;;0.55;0.55;;;6.80;99.90;;;;;;5073319;28;20028;-72
2022/02/15 00:38:25;;;;;;;0.22;0.22;;;6.60;99.90;;;;;;5073377;28;20108;-71
2022/02/15 00:40:51;;;;;;;2.05;1.85;;;6.50;99.90;;;;;;5088169;28;20461;-71
2022/02/15 00:43:17;;;;;;;0.20;0.20;;;6.50;99.90;;;;;;5072855;28;20068;-71
2022/02/15 00:45:43;;;;;;;0.10;0.10;;;6.60;99.90;;;;;;5071925;28;20109;-71
2022/02/15 00:48:08;;;;;;;3.25;0.90;;;6.70;99.90;;;;;;5088298;28;20052;-71
2022/02/15 00:50:34;;;;;;;0.05;0.05;;;6.70;99.90;;;;;;5073124;28;20044;-72
2022/02/15 00:53:00;;;;;;;0.10;0.10;;;6.70;99.90;;;;;;5073148;28;20035;-71
2022/02/15 00:55:26;;;;;;;0.10;0.10;;;6.70;99.90;;;;;;5088301;28;20032;-71
2022/02/15 00:57:51;;;;;;;0.03;0.03;;;6.70;99.90;;;;;;5071646;28;20098;-71
2022/02/15 01:00:18;;;;;;;0.10;0.10;;;6.70;99.90;;;;;;5072509;28;20028;-70
2022/02/15 01:02:45;;;;;;;0.10;0.10;;;6.70;99.90;;;;;;5072638;28;20029;-70
2022/02/15 01:05:11;;;;;;;0.32;0.25;;;6.80;99.90;;;;;;5088330;28;20131;-70
2022/02/15 01:07:37;;;;;;;0.25;0.25;;;6.80;99.90;;;;;;5088071;28;20116;-70
2022/02/15 01:10:04;;;;;;;1.75;1.42;;;6.80;99.90;;;;;;5088149;28;20028;-71
2022/02/15 01:12:30;;;;;;;0.10;0.10;;;6.80;99.90;;;;;;5088195;28;20029;-71
2022/02/15 01:14:56;;;;;;;1.42;1.13;;;6.70;99.90;;;;;;5072467;28;20492;-71
2022/02/15 01:17:22;;;;;;;0.30;0.30;;;6.70;99.90;;;;;;5072358;28;20038;-71
2022/02/15 01:19:48;;;;;;;0.50;0.50;;;6.70;99.90;;;;;;5071129;28;20359;-71
2022/02/15 01:22:13;;;;;;;0.22;0.22;;;6.70;99.90;;;;;;5071239;28;20056;-71
2022/02/15 01:24:39;;;;;;;0.82;0.82;;;6.60;99.90;;;;;;5072120;28;20054;-71
2022/02/15 01:27:05;;;;;;;2.20;2.00;;;6.50;99.90;;;;;;5072203;28;20083;-71
2022/02/15 01:29:31;;;;;;;0.10;0.10;;;6.40;99.90;;;;;;5072180;28;20144;-71
2022/02/15 01:31:57;;;;;;;0.20;0.20;;;6.30;99.90;;;;;;5087697;28;20081;-71
2022/02/15 01:34:22;;;;;;;0.05;0.05;;;6.20;99.90;;;;;;5072444;28;20024;-71
2022/02/15 01:36:48;;;;;;;0.10;0.10;;;6.10;99.90;;;;;;5087768;28;20497;-70
2022/02/15 01:39:14;;;;;;;1.20;1.00;;;6.10;99.90;;;;;;5072261;28;20029;-71
2022/02/15 01:41:40;;;;;;;0.22;0.22;;;6.10;99.90;;;;;;5071676;28;20040;-71
2022/02/15 01:44:06;;;;;;;0.25;0.25;;;6.10;99.90;;;;;;5072208;28;20234;-71
2022/02/15 01:46:32;;;;;;;0.13;0.13;;;6.00;99.90;;;;;;5070716;28;20111;-70
2022/02/15 01:48:58;;;;;;;0.52;0.52;;;6.00;99.90;;;;;;5071727;28;20396;-71
2022/02/15 01:51:26;;;;;;;0.08;0.08;;;6.00;99.90;;;;;;5071757;28;20040;-71
2022/02/15 01:53:53;;;;;;;0.75;0.75;;;6.00;99.90;;;;;;5086721;28;20036;-72
2022/02/15 01:56:19;;;;;;;0.63;0.63;;;5.90;99.90;;;;;;5087407;28;20024;-72
2022/02/15 01:58:45;;;;;;;0.00;0.00;;;5.90;99.90;;;;;;5072083;28;20029;-71
2022/02/15 02:01:11;;;;;;;0.68;0.68;;;6.10;99.90;;;;;;5072360;28;20550;-70
2022/02/15 02:11:18;;;;;;;0.17;0.17;;;6.10;99.90;;;;;;5071605;28;20041;-70
2022/02/15 02:13:44;;;;;;;0.17;0.17;;;6.20;99.90;;;;;;5086262;28;20039;-71
2022/02/15 02:16:10;;;;;;;0.47;0.47;;;6.20;99.90;;;;;;5071785;28;20071;-71
2022/02/15 02:18:36;;;;;;;0.38;0.38;;;6.20;99.90;;;;;;5087053;28;20040;-71
2022/02/15 02:21:06;;;;;;;0.57;0.55;;;6.30;99.90;;;;;;5071790;28;20028;-71
2022/02/15 02:23:35;;;;;;;0.17;0.17;;;6.30;99.90;;;;;;5087226;28;20032;-70
2022/02/15 02:26:01;;;;;;;1.65;1.13;;;6.30;99.90;;;;;;5070032;28;20028;-70
2022/02/15 02:28:27;;;;;;;0.03;0.03;;;6.40;99.90;;;;;;5071668;28;20043;-70
2022/02/15 02:30:53;;;;;;;0.10;0.10;;;6.40;99.90;;;;;;5086633;28;20425;-70
2022/02/15 02:33:19;;;;;;;0.10;0.10;;;6.40;99.90;;;;;;5070253;28;20035;-71
2022/02/15 02:35:44;;;;;;;0.20;0.20;;;6.40;99.90;;;;;;5071261;28;20392;-72
2022/02/15 02:38:10;;;;;;;0.25;0.25;;;6.40;99.90;;;;;;5071105;28;20043;-71
2022/02/15 02:40:36;;;;;;;0.15;0.15;;;6.40;99.90;;;;;;5071558;28;20039;-71
2022/02/15 04:46:09;;;;;;;0.10;0.10;;;5.90;99.90;;;;;;4000549;28;20060;-66
2022/02/15 04:48:34;;;;;;;0.00;0.00;;;5.90;99.90;;;;;;5055411;28;20036;-69
2022/02/15 04:51:00;;;;;;;0.68;0.68;;;5.90;99.90;;;;;;5053450;28;20037;-69
2022/02/15 04:53:26;;;;;;;0.30;0.30;;;6.00;99.90;;;;;;5053032;28;20036;-70
2022/02/15 04:55:51;;;;;;;2.55;1.35;;;6.00;99.90;;;;;;5068063;28;20043;-69
2022/02/15 04:58:17;;;;;;;0.43;0.43;;;6.00;99.90;;;;;;5051674;28;20051;-69
2022/02/15 05:00:45;;;;;;;0.55;0.55;;;6.00;99.90;;;;;;5052709;28;20037;-69
2022/02/15 05:03:10;;;;;;;1.05;0.95;;;6.00;99.90;;;;;;5051787;28;20033;-73
2022/02/15 05:05:36;;;;;;;0.00;0.00;;;6.00;99.90;;;;;;5052767;28;20119;-69
2022/02/15 05:08:03;;;;;;;0.45;0.45;;;6.00;99.90;;;;;;5068181;28;20496;-69
2022/02/15 05:10:29;;;;;;;0.95;0.88;;;6.00;99.90;;;;;;5051485;28;20382;-69
2022/02/15 05:12:56;;;;;;;0.00;0.00;;;6.00;99.90;;;;;;5052442;28;20592;-67
2022/02/15 05:15:22;;;;;;;0.10;0.10;;;6.10;99.90;;;;;;5071818;28;20099;-67
2022/02/15 05:17:48;;;;;;;0.10;0.10;;;6.20;99.90;;;;;;5072306;28;20501;-68
2022/02/15 05:20:16;;;;;;;0.20;0.20;;;6.10;99.90;;;;;;5072286;28;20040;-68
2022/02/15 05:22:43;;;;;;;0.10;0.10;;;6.00;99.90;;;;;;5071950;28;20025;-68
2022/02/15 05:25:11;;;;;;;0.57;0.57;;;6.00;99.90;;;;;;5072484;28;20035;-68
2022/02/15 05:27:37;;;;;;;0.25;0.25;;;6.00;99.90;;;;;;5087762;28;20025;-69
2022/02/15 05:30:03;;;;;;;0.10;0.10;;;5.90;99.90;;;;;;5072409;28;20098;-80
2022/02/15 05:32:29;;;;;;;0.00;0.00;;;5.90;99.90;;;;;;5087762;28;20496;-80
2022/02/15 05:34:55;;;;;;;0.10;0.10;;;5.90;99.90;;;;;;5072202;28;20041;-79
2022/02/15 05:37:20;;;;;;;0.30;0.30;;;5.90;99.90;;;;;;5071307;28;20107;-79
2022/02/15 05:39:46;;;;;;;0.65;0.65;;;5.90;99.90;;;;;;5071908;28;20074;-79
2022/02/15 05:42:12;;;;;;;1.27;1.17;;;5.90;99.90;;;;;;5071991;28;20043;-79
2022/02/15 05:44:37;;;;;;;0.10;0.10;;;5.90;99.90;;;;;;5072018;28;20112;-79
2022/02/15 05:47:04;;;;;;;0.90;0.90;;;5.90;99.90;;;;;;5071655;28;20047;-79
2022/02/15 05:49:29;;;;;;;0.55;0.35;;;5.80;99.90;;;;;;5087524;28;20060;-79
2022/02/15 05:51:55;;;;;;;0.10;0.10;;;5.80;99.90;;;;;;5071632;28;20079;-80
2022/02/15 05:54:21;;;;;;;0.10;0.10;;;5.80;99.90;;;;;;5072283;28;20041;-79
2022/02/15 05:56:47;;;;;;;0.40;0.40;;;5.80;99.90;;;;;;5072190;28;20028;-80
2022/02/15 05:59:12;;;;;;;0.00;0.00;;;5.80;99.90;;;;;;5072076;28;20525;-79
2022/02/15 06:01:38;;;;;;;0.00;0.00;;;5.80;99.90;;;;;;5071576;28;20036;-80
2022/02/15 06:04:12;;;;;;;0.22;0.22;;;5.80;99.90;;;;;;5072176;28;20037;-79
2022/02/15 06:06:40;;;;;;;0.10;0.10;;;5.70;99.90;;;;;;5072034;28;20504;-80
2022/02/15 06:09:06;;;;;;;0.60;0.60;;;5.70;99.90;;;;;;5071630;28;20037;-80
2022/02/15 06:11:33;;;;;;;0.28;0.28;;;5.60;99.90;;;;;;5071978;28;20123;-80
2022/02/15 06:13:59;;;;;;;0.10;0.10;;;5.70;99.90;;;;;;5087426;28;20021;-80
2022/02/15 06:16:26;;;;;;;0.10;0.10;;;5.60;99.90;;;;;;5071606;28;20451;-80
2022/02/15 06:18:56;;;;;;;0.10;0.10;;;5.70;99.90;;;;;;5071390;28;20448;-79
2022/02/15 06:21:23;;;;;;;0.68;0.68;;;5.60;99.90;;;;;;5071654;28;20085;-79
2022/02/15 06:23:49;;;;;;;0.82;0.82;;;5.60;99.90;;;;;;5071450;28;20104;-79
2022/02/15 06:26:15;;;;;;;0.08;0.08;;;5.60;99.90;;;;;;5071761;28;20107;-80
2022/02/15 06:28:41;;;;;;;0.10;0.10;;;5.60;99.90;;;;;;5071543;28;20063;-81
2022/02/15 06:31:07;;;;;;;0.50;0.40;;;5.60;99.90;;;;;;5071457;28;20507;-80
2022/02/15 06:33:34;;;;;;;0.30;0.30;;;5.50;99.90;;;;;;5071429;28;20028;-80
2022/02/15 06:36:02;;;;;;;0.13;0.13;;;5.50;99.90;;;;;;5070113;28;20043;-80
2022/02/15 06:38:28;;;;;;;0.10;0.10;;;5.50;99.90;;;;;;5071442;28;20488;-80
2022/02/15 06:40:54;;;;;;;0.30;0.30;;;5.40;99.90;;;;;;5071137;28;20050;-80
2022/02/15 06:43:19;;;;;;;0.68;0.68;;;5.30;99.90;;;;;;5068313;28;20028;-80
2022/02/15 06:45:45;;;;;;;0.30;0.30;;;5.30;99.90;;;;;;5070792;28;20119;-80
2022/02/15 06:48:11;;;;;;;0.43;0.43;;;5.30;99.90;;;;;;5070635;28;20033;-80
2022/02/15 06:50:38;;;;;;;0.10;0.10;;;5.30;99.90;;;;;;5070844;28;20435;-80
2022/02/15 06:53:05;;;;;;;0.40;0.40;;;5.30;99.90;;;;;;5070639;28;20078;-80
2022/02/15 06:55:31;;;;;;;0.47;0.45;;;5.40;99.90;;;;;;5069904;28;20420;-80
2022/02/15 06:57:56;;;;;;;0.00;0.00;;;5.50;99.90;;;;;;5071416;28;20029;-80
2022/02/15 07:00:22;;;;;;;0.10;0.10;;;5.50;99.90;;;;;;5073876;28;20040;-80
2022/02/15 07:02:48;;;;;;;0.00;0.00;;;5.50;99.90;;;;;;5074966;28;20523;-80
2022/02/15 07:05:14;;;;;;;0.20;0.20;;;5.50;99.90;;;;;;5075008;28;20465;-79
2022/02/15 07:07:39;;;;;;;1.67;1.58;;;5.50;99.90;;;;;;5076857;28;20032;-79
2022/02/15 07:10:06;;;;;;;0.20;0.20;;;5.50;99.90;;;;;;5074792;28;20044;-79
2022/02/15 07:12:32;;;;;;;0.85;0.68;;;5.40;99.90;;;;;;5073351;28;20028;-79
2022/02/15 07:14:58;;;;;;;0.30;0.30;;;5.40;99.90;;;;;;5074742;28;20035;-79
2022/02/15 07:17:27;;;;;;;0.17;0.17;;;5.40;99.90;;;;;;5074470;28;20107;-80
2022/02/15 07:19:53;;;;;;;0.47;0.47;;;5.40;99.90;;;;;;5073254;28;20404;-79
2022/02/15 07:22:20;;;;;;;0.00;0.00;;;5.40;99.90;;;;;;5074540;28;20114;-80
2022/02/15 07:24:46;;;;;;;0.15;0.15;;;5.50;99.90;;;;;;5073264;28;20059;-79
2022/02/15 07:27:12;;;;;;;0.55;0.55;;;5.50;99.90;;;;;;5073606;28;20056;-80
2022/02/15 07:29:37;;;;;;;0.10;0.10;;;5.50;99.90;;;;;;5074597;28;20025;-79
2022/02/15 07:32:03;;;;;;;0.73;0.73;;;5.60;99.90;;;;;;5073284;28;20533;-79
2022/02/15 07:34:29;;;;;;;0.63;0.63;;;5.60;99.90;;;;;;5075042;28;20028;-79
2022/02/15 07:36:55;;;;;;;0.17;0.17;;;5.60;99.90;;;;;;5074229;28;20032;-83
2022/02/15 07:39:20;;;;;;;1.40;1.30;;;5.70;99.90;;;;;;5078467;28;20485;-80
2022/02/15 07:41:49;;;;;;;0.20;0.20;;;5.70;99.90;;;;;;5073418;28;20029;-72
2022/02/15 07:44:16;;;;;;;0.10;0.10;;;5.70;99.90;;;;;;5077792;28;20039;-80
2022/02/15 07:46:44;;;;;;;2.38;1.35;;;5.70;99.90;;;;;;5083828;28;20382;-83
2022/02/15 07:49:10;;;;;;;0.10;0.10;;;5.70;99.90;;;;;;5085557;28;20489;-81
2022/02/15 07:51:36;;;;;;;0.00;0.00;;;5.70;99.90;;;;;;5082802;28;20043;-83
2022/02/15 07:54:02;;;;;;;0.10;0.10;;;5.80;99.90;;;;;;5075692;28;20483;-83
2022/02/15 07:56:28;;;;;;;0.38;0.38;;;5.80;99.90;;;;;;5076175;28;20412;-84
2022/02/15 07:58:53;;;;;;;0.90;0.90;;;5.80;99.90;;;;;;5076631;28;20473;-83
2022/02/15 08:01:19;;;;;;;0.00;0.00;;;5.80;99.90;;;;;;5074352;28;20044;-81
2022/02/15 08:03:45;;;;;;;0.10;0.10;;;5.80;99.90;;;;;;5073782;28;20044;-80
2022/02/15 08:06:11;;;;;;;0.00;0.00;;;5.80;99.90;;;;;;5073868;28;20047;-81
2022/02/15 08:08:36;;;;;;;0.10;0.10;;;5.90;99.90;;;;;;5072532;28;20029;-80
2022/02/15 08:11:02;;;;;;;0.10;0.10;;;5.90;99.90;;;;;;5072773;28;20109;-81
2022/02/15 08:13:34;;;;;;;0.10;0.10;;;5.90;99.90;;;;;;5073624;28;20028;-79
2022/02/15 08:16:01;;;;;;;0.30;0.30;;;5.90;99.90;;;;;;5073346;28;20424;-79
2022/02/15 08:18:28;;;;;;;0.63;0.63;;;6.10;99.90;;;;;;5072340;28;20032;-81
2022/02/15 08:20:53;;;;;;;0.00;0.00;;;6.10;99.90;;;;;;5073575;28;20111;-80
2022/02/15 08:23:19;;;;;;;0.28;0.28;;;6.20;99.90;;;;;;5073531;28;20115;-79
2022/02/15 08:25:46;;;;;;;1.00;1.00;;;6.20;99.90;;;;;;5073202;28;20036;-79
2022/02/15 08:28:13;;;;;;;0.00;0.00;;;6.30;99.90;;;;;;5073210;28;20501;-80
2022/02/15 08:30:40;;;;;;;0.00;0.00;;;6.30;99.90;;;;;;5073408;28;20051;-80
2022/02/15 08:33:06;;;;;;;2.03;0.98;;;6.40;99.90;;;;;;5073199;28;20040;-80
2022/02/15 08:35:32;;;;;;;0.10;0.10;;;6.50;99.90;;;;;;5073073;28;20025;-80
2022/02/15 08:37:57;;;;;;;2.58;1.95;;;6.50;99.90;;;;;;5056883;28;20470;-81
2022/02/15 08:40:23;;;;;;;0.28;0.28;;;6.60;99.90;;;;;;5053226;28;20136;-81
2022/02/15 08:42:49;;;;;;;1.67;0.70;;;6.70;99.90;;;;;;5052762;28;20083;-80
2022/02/15 08:45:15;;;;;;;0.10;0.10;;;6.70;99.90;;;;;;5052827;28;20041;-81
2022/02/15 08:47:41;;;;;;;2.17;0.85;;;6.80;99.90;;;;;;5052672;28;20136;-83
2022/02/15 08:50:08;;;;;;;0.10;0.10;;;7.00;99.90;;;;;;5051760;28;20086;-79
2022/02/15 08:52:38;;;;;;;0.08;0.08;;;7.10;99.90;;;;;;5051624;28;20029;-80
2022/02/15 08:55:07;;;;;;;0.20;0.20;;;7.20;99.90;;;;;;5053105;28;20040;-80
2022/02/15 08:57:33;;;;;;;0.10;0.10;;;7.20;99.90;;;;;;5053128;28;20442;-80
2022/02/15 08:59:59;;;;;;;0.00;0.00;;;7.40;99.90;;;;;;5071214;28;20051;-80
2022/02/15 09:02:26;;;;;;;0.10;0.10;;;7.50;99.90;;;;;;5072729;28;20413;-81
2022/02/15 09:04:53;;;;;;;0.30;0.30;;;7.60;99.90;;;;;;5071496;28;20025;-80
2022/02/15 09:07:19;;;;;;;1.25;1.10;;;7.50;99.90;;;;;;5071304;28;20385;-79
2022/02/15 09:09:45;;;;;;;0.00;0.00;;;7.50;99.90;;;;;;5072180;28;20028;-80
2022/02/15 09:12:11;;;;;;;0.00;0.00;;;7.60;99.90;;;;;;5072770;28;20045;-80
2022/02/15 09:14:38;;;;;;;1.25;0.68;;;7.70;99.90;;;;;;5072635;28;20056;-80
2022/02/15 09:17:05;;;;;;;0.00;0.00;;;7.80;99.90;;;;;;5072404;28;20081;-79
2022/02/15 09:19:31;;;;;;;3.95;0.85;;;7.90;99.90;;;;;;5072304;28;20037;-79
2022/02/15 09:21:59;;;;;;;0.00;0.00;;;8.00;99.90;;;;;;5070836;28;20032;-80
2022/02/15 09:24:26;;;;;;;0.00;0.00;;;8.00;99.90;;;;;;5071309;28;20135;-80
2022/02/15 09:26:52;;;;;;;0.08;0.08;;;8.10;99.90;;;;;;5072272;28;20021;-80
2022/02/15 09:29:18;;;;;;;0.10;0.10;;;8.10;99.90;;;;;;5071037;28;20029;-80
2022/02/15 09:31:44;;;;;;;0.10;0.10;;;8.10;99.90;;;;;;5071853;28;20089;-78
2022/02/15 09:34:11;;;;;;;0.00;0.00;;;8.20;99.90;;;;;;5071057;28;20111;-79
2022/02/15 09:36:38;;;;;;;0.45;0.40;;;8.30;99.90;;;;;;5072101;28;20031;-80
2022/02/15 09:39:06;;;;;;;0.25;0.25;;;8.40;99.90;;;;;;5071807;28;20492;-80
2022/02/15 09:41:35;;;;;;;0.00;0.00;;;8.50;99.90;;;;;;5072162;28;20025;-80
2022/02/15 09:44:04;;;;;;;0.00;0.00;;;8.60;99.90;;;;;;5072280;28;20182;-81
2022/02/15 09:46:30;;;;;;;0.00;0.00;;;8.70;99.90;;;;;;5070698;28;20101;-80
2022/02/15 09:48:56;;;;;;;0.30;0.30;;;8.70;99.90;;;;;;5071776;28;20036;-80
2022/02/15 09:51:25;;;;;;;0.00;0.00;;;8.90;99.90;;;;;;5070646;28;20079;-80
2022/02/15 09:53:51;;;;;;;0.00;0.00;;;9.00;99.90;;;;;;5071689;28;20086;-80
2022/02/15 09:56:18;;;;;;;0.00;0.00;;;9.00;99.90;;;;;;5071888;28;20033;-72
2022/02/15 09:58:44;;;;;;;0.10;0.10;;;9.00;99.90;;;;;;5070633;28;20032;-74
2022/02/15 10:01:15;;;;;;;0.00;0.00;;;9.10;99.90;;;;;;5071527;28;20028;-68
2022/02/15 10:03:48;;;;;;;0.00;0.00;;;9.30;99.90;;;;;;5070445;28;20119;-78
2022/02/15 10:06:14;;;;;;;0.55;0.45;;;9.40;99.90;;;;;;5070266;28;20115;-76
2022/02/15 10:08:40;;;;;;;0.00;0.00;;;9.40;99.90;;;;;;5071805;28;20115;-73
2022/02/15 10:11:14;;;;;;;0.00;0.00;;;9.60;99.90;;;;;;5070006;28;20086;-71
2022/02/15 10:13:45;;;;;;;0.57;0.45;;;9.80;99.90;;;;;;5071576;28;20111;-76
2022/02/15 10:16:11;;;;;;;0.00;0.00;;;10.30;99.90;;;;;;5069958;28;20036;-73
2022/02/15 10:18:37;;;;;;;2.10;0.40;;;10.60;99.90;;;;;;5070081;28;20032;-71
2022/02/15 10:21:04;;;;;;;0.10;0.10;;;10.70;99.90;;;;;;5069662;28;20477;-77
2022/02/15 10:23:33;;;;;;;0.00;0.00;;;10.80;99.90;;;;;;5071289;28;20116;-74
2022/02/15 10:25:59;;;;;;;0.10;0.10;;;10.50;99.90;;;;;;5070289;28;20428;-78
2022/02/15 10:28:28;;;;;;;0.00;0.00;;;10.30;99.90;;;;;;5070519;28;20024;-74
2022/02/15 10:30:57;;;;;;;0.00;0.00;;;10.30;99.90;;;;;;5071230;28;20123;-76
2022/02/15 10:33:35;;;;;;;0.00;0.00;;;10.80;99.90;;;;;;5071698;28;20465;-74
2022/02/15 10:36:02;;;;;;;0.22;0.22;;;10.80;99.90;;;;;;5075099;28;20074;-79
2022/02/15 10:38:45;;;;;;;0.10;0.10;;;10.90;99.90;;;;;;5057518;28;20036;-69
2022/02/15 10:41:17;;;;;;;0.00;0.00;;;11.30;99.90;;;;;;5068301;28;20033;-72
2022/02/15 10:43:54;;;;;;;0.10;0.10;;;11.20;99.90;;;;;;5053984;28;20025;-65
2022/02/15 10:46:23;;;;;;;0.00;0.00;;;10.90;99.90;;;;;;5054946;28;20556;-70
2022/02/15 10:48:49;;;;;;;0.20;0.20;;;10.50;99.90;;;;;;5054068;28;20037;-69
2022/02/15 10:51:17;;;;;;;0.00;0.00;;;10.20;99.90;;;;;;5054760;28;20397;-69
2022/02/15 10:53:43;;;;;;;0.00;0.00;;;10.30;99.90;;;;;;5068112;28;20020;-67
2022/02/15 10:56:10;;;;;;;0.00;0.00;;;10.30;99.90;;;;;;5074576;28;20036;-71
2022/02/15 10:58:36;;;;;;;0.32;0.32;;;10.10;99.90;;;;;;5056973;28;20036;-70
2022/02/15 11:01:06;;;;;;;0.35;0.35;;;9.90;99.90;;;;;;5074671;28;20077;-70
2022/02/15 11:03:44;;;;;;;0.10;0.10;;;9.70;99.90;;;;;;5077291;28;20055;-71
2022/02/15 11:06:10;;;;;;;0.00;0.00;;;9.60;99.90;;;;;;5074771;28;20028;-71
2022/02/15 11:08:38;;;;;;;0.00;0.00;;;9.50;99.90;;;;;;5073374;28;20552;-71
2022/02/15 11:11:13;;;;;;;0.05;0.05;;;9.40;99.90;;;;;;5073443;28;20477;-70
2022/02/15 11:13:40;;;;;;;0.00;0.00;;;9.40;99.90;;;;;;5073264;28;20032;-77
2022/02/15 11:16:19;;;;;;;0.95;0.95;;;9.50;99.90;;;;;;5073055;28;20075;-76
2022/02/15 11:18:46;;;;;;;0.00;0.00;;;9.70;99.90;;;;;;5074475;28;20497;-77
2022/02/15 11:21:22;;;;;;;0.05;0.05;;;9.70;99.90;;;;;;5072950;28;20040;-77
2022/02/15 11:23:58;;;;;;;0.00;0.00;;;9.80;99.90;;;;;;5074220;28;20508;-75
2022/02/15 11:26:41;;;;;;;0.40;0.40;;;10.00;99.90;;;;;;5073214;28;20036;-76
2022/02/15 11:29:25;;;;;;;6.13;1.08;;;10.00;99.90;;;;;;5072812;28;20037;-76
2022/02/15 11:31:55;;;;;;;0.08;0.08;;;10.70;99.90;;;;;;5073584;28;20045;-75
2022/02/15 11:34:41;;;;;;;0.00;0.00;;;11.10;99.90;;;;;;5072726;28;20036;-75
2022/02/15 11:37:19;;;;;;;0.00;0.00;;;10.70;99.90;;;;;;5073139;28;20101;-75
2022/02/15 11:39:57;;;;;;;0.00;0.00;;;10.10;99.90;;;;;;5074220;28;20075;-75
2022/02/15 11:42:23;;;;;;;0.00;0.00;;;9.90;99.90;;;;;;5073995;28;20020;-68
2022/02/15 11:44:48;;;;;;;0.00;0.00;;;9.50;99.90;;;;;;5073733;28;20032;-78
2022/02/15 11:47:19;;;;;;;0.00;0.00;;;9.10;99.90;;;;;;5072453;28;20397;-75
2022/02/15 11:49:58;;;;;;;0.00;0.00;;;8.50;99.90;;;;;;5073976;28;20028;-75
2022/02/15 11:52:26;;;;;;;0.00;0.00;;;8.20;99.90;;;;;;5072416;28;20278;-78
2022/02/15 11:54:54;;;;;;;0.08;0.08;;;8.10;99.90;;;;;;5074130;28;20028;-78
2022/02/15 11:57:21;;;;;;;0.00;0.00;;;8.10;99.90;;;;;;5074313;28;20039;-80
2022/02/15 11:59:53;;;;;;;0.28;0.28;;;8.10;99.90;;;;;;5072446;28;20043;-67
2022/02/15 12:02:19;;;;;;;0.00;0.00;;;8.20;99.90;;;;;;5072214;28;20407;-76
2022/02/15 12:04:58;;;;;;;0.08;0.08;;;8.20;99.90;;;;;;5072083;28;20035;-72
2022/02/15 12:07:29;;;;;;;0.10;0.10;;;8.30;99.90;;;;;;5072605;28;20040;-73
2022/02/15 12:10:01;;;;;;;0.00;0.00;;;8.50;99.90;;;;;;5072358;28;20161;-72
2022/02/15 12:12:43;;;;;;;0.00;0.00;;;8.50;99.90;;;;;;5073687;28;20037;-73
2022/02/15 12:15:10;;;;;;;0.10;0.10;;;8.60;99.90;;;;;;5072269;28;20505;-73
2022/02/15 12:17:42;;;;;;;0.00;0.00;;;8.70;99.90;;;;;;5073281;28;20118;-74
2022/02/15 12:20:12;;;;;;;0.00;0.00;;;9.10;99.90;;;;;;5056140;28;20032;-72
2022/02/15 12:22:41;;;;;;;0.00;0.00;;;9.80;99.90;;;;;;5073458;28;20056;-72
2022/02/15 12:25:08;;;;;;;0.00;0.00;;;10.00;99.90;;;;;;5073056;28;20036;-73
2022/02/15 12:27:38;;;;;;;0.00;0.00;;;9.80;99.90;;;;;;5071993;28;20334;-73
2022/02/15 12:30:05;;;;;;;0.15;0.15;;;9.80;99.90;;;;;;5073286;28;20082;-74
2022/02/15 12:32:32;;;;;;;1.55;0.90;;;10.90;99.90;;;;;;5073184;28;20080;-75
2022/02/15 12:34:58;;;;;;;0.00;0.00;;;10.90;99.90;;;;;;5071887;28;20117;-75
2022/02/15 12:37:27;;;;;;;0.00;0.00;;;11.10;99.90;;;;;;5073018;28;20569;-74
2022/02/15 12:39:59;;;;;;;0.00;0.00;;;11.20;99.90;;;;;;5067840;28;20426;-75
2022/02/15 12:42:29;;;;;;;0.00;0.00;;;11.10;99.90;;;;;;5051598;28;20029;-76
2022/02/15 12:45:04;;;;;;;0.00;0.00;;;11.00;99.90;;;;;;5053300;28;20033;-76
2022/02/15 12:47:35;;;;;;;0.13;0.13;;;10.80;99.90;;;;;;5052731;28;20052;-75
2022/02/15 12:50:03;;;;;;;0.00;0.00;;;10.90;99.90;;;;;;5058135;28;20048;-75
2022/02/15 12:52:32;;;;;;;0.00;0.00;;;11.30;99.90;;;;;;5072727;28;20040;-75
2022/02/15 12:55:31;;;;;;;0.00;0.00;;;11.20;99.90;;;;;;5072571;28;20024;-76
2022/02/15 12:57:57;;;;;;;0.00;0.00;;;10.50;99.90;;;;;;5064307;28;20043;-74
2022/02/15 13:00:29;;;;;;;0.85;0.65;;;10.40;99.90;;;;;;5072794;28;20032;-74
2022/02/15 13:02:55;;;;;;;0.00;0.00;;;10.10;99.90;;;;;;5071940;28;20032;-74
2022/02/15 13:05:35;;;;;;;0.00;0.00;;;9.90;99.90;;;;;;5072595;28;20029;-74
2022/02/15 13:08:01;;;;;;;0.85;0.30;;;9.70;99.90;;;;;;5072593;28;20036;-74
2022/02/15 13:10:28;;;;;;;0.10;0.10;;;9.60;99.90;;;;;;5054449;28;20082;-73
2022/02/15 13:13:08;;;;;;;0.00;0.00;;;9.60;99.90;;;;;;5071375;28;20058;-75
2022/02/15 13:15:35;;;;;;;0.00;0.00;;;9.60;99.90;;;;;;5070806;28;20485;-74
2022/02/15 13:18:05;;;;;;;0.00;0.00;;;9.50;99.90;;;;;;5072149;28;20037;-75
2022/02/15 13:20:37;;;;;;;0.00;0.00;;;9.40;99.90;;;;;;5072349;28;20033;-73
2022/02/15 13:23:07;;;;;;;0.22;0.22;;;9.30;99.90;;;;;;5071202;28;20459;-75
2022/02/15 13:25:49;;;;;;;0.00;0.00;;;9.20;99.90;;;;;;5072034;28;20025;-79
2022/02/15 13:28:18;;;;;;;0.00;0.00;;;9.00;99.90;;;;;;5071241;28;20039;-71
2022/02/15 13:30:46;;;;;;;0.00;0.00;;;9.00;99.90;;;;;;5071476;28;20032;-70
2022/02/15 13:33:15;;;;;;;2.08;1.48;;;9.00;99.90;;;;;;5087305;28;20028;-75
2022/02/15 13:35:57;;;;;;;0.00;0.00;;;9.00;99.90;;;;;;5087534;28;20123;-78
2022/02/15 13:38:24;;;;;;;0.00;0.00;;;9.20;99.90;;;;;;5085831;28;20401;-71
2022/02/15 13:40:51;;;;;;;0.00;0.00;;;9.20;99.90;;;;;;5071426;28;20040;-73
2022/02/15 13:43:26;;;;;;;0.00;0.00;;;9.40;99.90;;;;;;5071940;28;20058;-71
2022/02/15 13:45:53;;;;;;;2.60;1.48;;;9.50;99.90;;;;;;5071632;28;20044;-71
2022/02/15 13:48:19;;;;;;;0.00;0.00;;;9.30;99.90;;;;;;5087295;28;20046;-75
2022/02/15 13:50:45;;;;;;;0.20;0.20;;;9.30;99.90;;;;;;5087335;28;20040;-74
2022/02/15 13:53:11;;;;;;;0.00;0.00;;;9.50;99.90;;;;;;5071449;28;20032;-73
2022/02/15 13:55:37;;;;;;;0.13;0.13;;;9.50;99.90;;;;;;5071623;28;20036;-70
2022/02/15 13:58:03;;;;;;;0.00;0.00;;;9.30;99.90;;;;;;5071661;28;20039;-76
2022/02/15 14:00:28;;;;;;;0.10;0.10;;;9.40;99.90;;;;;;5070242;28;20115;-72
2022/02/15 14:02:54;;;;;;;0.10;0.10;;;9.30;99.90;;;;;;5071587;28;20464;-77
2022/02/15 14:05:21;;;;;;;0.00;0.00;;;9.40;99.90;;;;;;5071530;28;20031;-76
2022/02/15 14:07:47;;;;;;;0.10;0.10;;;9.30;99.90;;;;;;5073831;28;20051;-76
2022/02/15 14:10:13;;;;;;;0.10;0.10;;;9.30;99.90;;;;;;5070259;28;20024;-76
2022/02/15 14:12:39;;;;;;;0.28;0.28;;;9.40;99.90;;;;;;5071856;28;20028;-80
2022/02/15 14:15:12;;;;;;;0.10;0.10;;;9.40;99.90;;;;;;5070203;28;20123;-70
2022/02/15 14:17:47;;;;;;;0.08;0.08;;;9.40;99.90;;;;;;5071652;28;20032;-69
2022/02/15 14:20:19;;;;;;;0.10;0.10;;;9.20;99.90;;;;;;5069808;28;20036;-81
2022/02/15 14:22:47;;;;;;;0.10;0.10;;;9.30;99.90;;;;;;5053650;28;20028;-77
2022/02/15 14:25:15;;;;;;;0.00;0.00;;;9.50;99.90;;;;;;5070031;28;20032;-76
2022/02/15 14:27:43;;;;;;;0.00;0.00;;;9.70;99.90;;;;;;5070954;28;20489;-76
2022/02/15 14:30:15;;;;;;;0.00;0.00;;;9.80;99.90;;;;;;5070173;28;20117;-80
2022/02/15 14:32:46;;;;;;;0.00;0.00;;;10.00;99.90;;;;;;5071259;28;20048;-79
2022/02/15 14:35:13;;;;;;;0.00;0.00;;;10.00;99.90;;;;;;5069955;28;20059;-78
2022/02/15 14:37:41;;;;;;;0.10;0.10;;;10.10;99.90;;;;;;5071294;28;20044;-78
2022/02/15 14:40:08;;;;;;;0.00;0.00;;;10.00;99.90;;;;;;5069529;28;20040;-75
2022/02/15 14:42:36;;;;;;;0.00;0.00;;;10.00;99.90;;;;;;5053062;28;20420;-69
2022/02/15 14:45:06;;;;;;;0.08;0.08;;;9.90;99.90;;;;;;5070627;28;20033;-74
2022/02/15 14:47:32;;;;;;;0.00;0.00;;;10.20;99.90;;;;;;5069038;28;20051;-73
2022/02/15 14:49:58;;;;;;;0.08;0.08;;;10.10;99.90;;;;;;5070476;28;20036;-77
2022/02/15 14:52:24;;;;;;;0.10;0.10;;;9.80;99.90;;;;;;5071425;28;20484;-78
2022/02/15 14:54:50;;;;;;;0.00;0.00;;;9.90;99.70;;;;;;5067506;28;20021;-83
2022/02/15 14:57:17;;;;;;;0.00;0.00;;;9.70;99.90;;;;;;5071060;28;20029;-77
2022/02/15 14:59:43;;;;;;;0.00;0.00;;;9.70;99.90;;;;;;5069661;28;20358;-75
2022/02/15 15:02:09;;;;;;;0.10;0.10;;;9.70;99.90;;;;;;5070434;28;20035;-75
2022/02/15 15:04:37;;;;;;;0.32;0.32;;;9.60;99.90;;;;;;5069611;28;20082;-81
2022/02/15 15:07:05;;;;;;;0.00;0.00;;;9.60;99.90;;;;;;5070762;28;20040;-81
2022/02/15 15:09:32;;;;;;;0.00;0.00;;;9.70;99.50;;;;;;5070885;28;20124;-78